Time;durP1;ratioP1;P1;durP2;ratioP2;P2;SDS_P1;SDS_P2;PMS_P1;PMS_P2;Temp;Humidity;BMP_temperature;BMP_pressure;BME280_temperature;BME280_humidity;BME280_pressure;Samples;Min_cycle;Max_cycle;Signal;HPM_P1;HPM_P2
2023/05/04 00:03:22;;;;;;;21.87;13.97;;;4.30;99.90;;;;;;12554627;23;20190;-83
2023/05/04 00:08:24;;;;;;;19.40;12.17;;;4.20;99.90;;;;;;12554928;23;20528;-83
2023/05/04 00:13:27;;;;;;;25.57;13.73;;;4.00;99.90;;;;;;12530458;23;20170;-83
2023/05/04 00:18:29;;;;;;;28.87;15.13;;;4.10;99.90;;;;;;12555715;23;20232;-83
2023/05/04 00:23:32;;;;;;;21.27;13.13;;;4.10;99.90;;;;;;12555138;23;20167;-83
2023/05/04 00:28:37;;;;;;;17.13;11.93;;;4.00;99.90;;;;;;12554982;23;20498;-83
2023/05/04 00:33:39;;;;;;;19.80;11.87;;;4.00;99.90;;;;;;12571389;23;20221;-83
2023/05/04 00:38:49;;;;;;;17.67;10.40;;;4.00;99.90;;;;;;12554933;23;20551;-83
2023/05/04 00:43:51;;;;;;;18.10;10.23;;;3.90;99.90;;;;;;12552730;23;20178;-83
2023/05/04 00:48:54;;;;;;;14.97;10.60;;;4.00;99.90;;;;;;12529245;23;20568;-83
2023/05/04 00:53:57;;;;;;;16.33;10.20;;;4.10;99.90;;;;;;12554831;23;20570;-83
2023/05/04 00:58:59;;;;;;;18.03;12.63;;;4.10;99.90;;;;;;12554542;23;20522;-83
2023/05/04 01:04:02;;;;;;;15.27;10.70;;;3.90;99.90;;;;;;12554659;23;20173;-83
2023/05/04 01:09:09;;;;;;;12.80;8.53;;;4.00;99.90;;;;;;12554714;23;20233;-83
2023/05/04 01:14:14;;;;;;;16.93;11.63;;;3.70;99.90;;;;;;12575853;23;20197;-83
2023/05/04 01:19:16;;;;;;;18.27;12.20;;;3.80;99.90;;;;;;12552277;23;20240;-83
2023/05/04 01:24:19;;;;;;;19.30;12.07;;;3.40;99.90;;;;;;12553647;23;20233;-83
2023/05/04 01:29:48;;;;;;;20.77;12.63;;;3.30;99.90;;;;;;12553767;23;20239;-83
2023/05/04 01:34:50;;;;;;;21.83;11.60;;;3.40;99.90;;;;;;12552573;23;20205;-83
2023/05/04 01:39:53;;;;;;;21.17;12.90;;;3.30;99.90;;;;;;12553716;23;20166;-83
2023/05/04 01:44:56;;;;;;;17.83;10.93;;;3.40;99.90;;;;;;12528722;23;20619;-83
2023/05/04 01:49:58;;;;;;;19.20;12.40;;;3.40;99.90;;;;;;12558043;23;20194;-83
2023/05/04 01:55:01;;;;;;;16.93;12.07;;;3.30;99.90;;;;;;12555594;23;20260;-83
2023/05/04 02:00:04;;;;;;;17.23;11.80;;;3.30;99.90;;;;;;12571820;23;20482;-83
2023/05/04 02:05:16;;;;;;;10.43;6.83;;;3.20;99.90;;;;;;12576491;23;20288;-83
2023/05/04 02:10:19;;;;;;;17.43;8.87;;;3.20;99.90;;;;;;12555553;23;20202;-83
2023/05/04 02:15:22;;;;;;;20.77;11.47;;;3.20;99.90;;;;;;12556103;23;20198;-83
2023/05/04 02:20:24;;;;;;;17.07;11.73;;;3.20;99.90;;;;;;12555075;23;20185;-83
2023/05/04 02:25:27;;;;;;;19.03;12.17;;;3.10;99.90;;;;;;12554522;23;20241;-83
2023/05/04 02:30:29;;;;;;;15.23;10.40;;;3.00;99.90;;;;;;12556278;23;20178;-83
2023/05/04 02:35:32;;;;;;;24.03;13.00;;;3.00;99.90;;;;;;12554645;23;20206;-83
2023/05/04 02:40:35;;;;;;;19.90;13.33;;;3.00;99.90;;;;;;12555143;23;20657;-83
2023/05/04 02:45:37;;;;;;;18.37;12.13;;;3.00;99.90;;;;;;12568900;23;20561;-83
2023/05/04 02:50:40;;;;;;;18.07;11.97;;;;;;;;;;12556839;23;20174;-83
2023/05/04 02:55:43;;;;;;;18.30;11.17;;;6.30;99.90;;;;;;12556276;23;20244;-83
2023/05/04 03:00:46;;;;;;;17.13;11.63;;;2.80;99.90;;;;;;12556400;23;20529;-83
2023/05/04 03:05:48;;;;;;;22.33;12.17;;;2.90;99.90;;;;;;12530454;23;20237;-83
2023/05/04 03:10:51;;;;;;;20.50;13.60;;;2.90;99.90;;;;;;12557101;23;20201;-83
2023/05/04 03:15:53;;;;;;;11.97;8.30;;;2.80;99.90;;;;;;12554015;23;20197;-83
2023/05/04 03:20:56;;;;;;;20.73;12.07;;;3.00;99.90;;;;;;12578439;23;20240;-83
2023/05/04 03:25:58;;;;;;;18.93;11.03;;;3.00;99.90;;;;;;12529953;23;20517;-83
2023/05/04 03:31:02;;;;;;;21.77;13.47;;;3.00;99.90;;;;;;12553689;23;20218;-83
2023/05/04 03:36:05;;;;;;;19.73;12.73;;;2.70;99.90;;;;;;12554079;23;20258;-83
2023/05/04 03:41:07;;;;;;;21.80;12.73;;;2.70;99.90;;;;;;12555936;23;20498;-83
2023/05/04 03:46:10;;;;;;;18.13;12.17;;;2.70;99.90;;;;;;12555662;23;20232;-83
2023/05/04 03:51:13;;;;;;;24.30;14.67;;;2.70;99.90;;;;;;12530193;23;20214;-83
2023/05/04 03:56:16;;;;;;;16.83;11.87;;;2.80;99.90;;;;;;12553757;23;20634;-83
2023/05/04 04:01:18;;;;;;;22.40;12.57;;;2.80;99.90;;;;;;12529312;23;20214;-83
2023/05/04 04:06:21;;;;;;;16.43;12.83;;;2.90;99.90;;;;;;12555382;23;20221;-83
2023/05/04 04:11:25;;;;;;;15.80;10.50;;;3.10;99.90;;;;;;12529577;23;20230;-83
2023/05/04 04:16:28;;;;;;;15.57;9.13;;;3.20;99.90;;;;;;12552999;23;20190;-83
2023/05/04 04:21:30;;;;;;;19.63;10.63;;;3.40;99.90;;;;;;12554955;23;20218;-83
2023/05/04 04:26:34;;;;;;;10.93;7.80;;;3.60;99.90;;;;;;12554847;23;20237;-83
2023/05/04 04:31:36;;;;;;;20.93;13.07;;;4.00;99.90;;;;;;12555086;23;20634;-83
2023/05/04 04:36:39;;;;;;;16.17;10.13;;;4.40;99.90;;;;;;12554514;23;20202;-84
2023/05/04 04:41:41;;;;;;;17.93;9.93;;;4.50;99.90;;;;;;12504754;23;20182;-84
2023/05/04 04:46:45;;;;;;;13.60;9.00;;;4.70;99.90;;;;;;12554241;23;20705;-84
2023/05/04 04:51:47;;;;;;;11.37;7.70;;;5.00;99.90;;;;;;12552890;23;20186;-84
2023/05/04 04:56:50;;;;;;;13.87;8.57;;;5.20;99.90;;;;;;12554467;23;20203;-83
2023/05/04 05:01:52;;;;;;;10.13;8.13;;;5.50;99.90;;;;;;12551230;23;20550;-84
2023/05/04 05:06:55;;;;;;;17.80;9.50;;;5.60;99.90;;;;;;12555353;23;20280;-83
2023/05/04 05:11:58;;;;;;;11.53;7.20;;;5.70;99.90;;;;;;12554165;23;20270;-84
2023/05/04 05:17:02;;;;;;;15.90;10.23;;;5.80;99.90;;;;;;12561588;23;20257;-83
2023/05/04 05:22:05;;;;;;;33.63;14.87;;;5.90;99.90;;;;;;12554065;23;20515;-83
2023/05/04 05:27:07;;;;;;;13.33;7.73;;;6.10;99.90;;;;;;12553987;23;20213;-83
2023/05/04 05:32:10;;;;;;;32.70;19.73;;;6.30;99.90;;;;;;12555402;23;20614;-83
2023/05/04 05:37:13;;;;;;;16.27;11.37;;;6.60;99.90;;;;;;12529038;23;20189;-83
2023/05/04 05:42:15;;;;;;;35.03;16.77;;;6.80;99.90;;;;;;12529127;23;20228;-84
2023/05/04 05:47:18;;;;;;;20.90;12.70;;;7.00;99.90;;;;;;12552109;23;20182;-83
2023/05/04 05:52:20;;;;;;;27.20;17.00;;;7.20;99.90;;;;;;12552805;23;20174;-83
2023/05/04 05:57:23;;;;;;;29.53;16.90;;;7.40;99.90;;;;;;12528653;23;20241;-83
2023/05/04 06:02:25;;;;;;;25.97;13.97;;;7.60;99.90;;;;;;12553862;23;20237;-83
2023/05/04 06:07:28;;;;;;;23.57;15.50;;;7.80;99.90;;;;;;12553403;23;20206;-83
2023/05/04 06:12:31;;;;;;;30.83;17.97;;;8.00;99.90;;;;;;12551342;23;20210;-83
2023/05/04 06:17:33;;;;;;;29.47;16.63;;;8.20;99.90;;;;;;12552842;23;20194;-83
2023/05/04 06:22:36;;;;;;;25.30;15.87;;;8.50;99.90;;;;;;12551738;23;20265;-84
2023/05/04 06:27:38;;;;;;;32.43;19.63;;;8.60;99.90;;;;;;12552873;23;20214;-83
2023/05/04 06:32:41;;;;;;;18.10;13.50;;;9.00;99.90;;;;;;12555763;23;20518;-83
2023/05/04 06:37:44;;;;;;;22.63;14.93;;;9.30;99.90;;;;;;12557393;23;20398;-83
2023/05/04 06:42:46;;;;;;;18.70;13.07;;;9.90;99.90;;;;;;12557372;23;20170;-83
2023/05/04 06:47:49;;;;;;;15.30;9.67;;;9.90;99.90;;;;;;12556959;23;20517;-83
2023/05/04 06:53:10;;;;;;;27.30;16.20;;;10.00;99.90;;;;;;12556923;23;20324;-83
2023/05/04 06:58:15;;;;;;;26.60;16.63;;;10.20;99.90;;;;;;12557037;23;20234;-83
2023/05/04 07:03:18;;;;;;;17.80;10.80;;;10.60;99.90;;;;;;12556447;23;20218;-83
2023/05/04 07:08:21;;;;;;;15.87;10.93;;;10.70;99.90;;;;;;12556222;23;20261;-83
2023/05/04 07:13:23;;;;;;;14.03;8.03;;;11.00;99.60;;;;;;12531305;23;20182;-83
2023/05/04 07:18:26;;;;;;;15.83;9.60;;;11.30;98.50;;;;;;12552869;23;20596;-83
2023/05/04 07:23:29;;;;;;;18.70;10.47;;;11.70;95.10;;;;;;12572328;23;20171;-83
2023/05/04 07:28:32;;;;;;;12.70;9.07;;;11.90;95.40;;;;;;12557050;23;20182;-83
2023/05/04 07:33:34;;;;;;;14.03;6.87;;;12.20;94.00;;;;;;12556008;23;20242;-83
2023/05/04 07:38:37;;;;;;;16.87;7.87;;;12.50;94.00;;;;;;12573209;23;20226;-83
2023/05/04 07:43:39;;;;;;;12.80;8.63;;;12.70;90.50;;;;;;12578177;23;20569;-83
2023/05/04 07:48:42;;;;;;;15.33;8.47;;;13.00;91.70;;;;;;12554476;23;20186;-83
2023/05/04 07:53:45;;;;;;;15.23;7.40;;;13.40;88.60;;;;;;12573506;23;20171;-83
2023/05/04 07:58:47;;;;;;;11.77;6.90;;;13.50;90.10;;;;;;12555534;23;20222;-83
2023/05/04 08:03:50;;;;;;;5.80;4.70;;;13.70;87.90;;;;;;12555482;23;20527;-83
2023/05/04 08:08:53;;;;;;;12.43;6.63;;;14.10;87.60;;;;;;12555265;23;20238;-83
2023/05/04 08:13:55;;;;;;;9.60;5.17;;;14.40;78.60;;;;;;12531903;23;20214;-83
2023/05/04 08:18:59;;;;;;;11.20;6.27;;;14.90;82.90;;;;;;12555041;23;20242;-83
2023/05/04 08:24:03;;;;;;;7.67;5.30;;;15.10;79.40;;;;;;12553436;23;20254;-83
2023/05/04 08:29:07;;;;;;;7.10;4.17;;;15.30;66.50;;;;;;12555153;23;20520;-83
2023/05/04 08:34:10;;;;;;;6.53;4.70;;;;;;;;;;12571849;23;20170;-83
2023/05/04 08:39:12;;;;;;;9.63;4.83;;;15.90;61.00;;;;;;12552438;23;20202;-83
2023/05/04 08:44:17;;;;;;;6.67;3.47;;;16.00;49.50;;;;;;12554894;23;20178;-83
2023/05/04 08:49:21;;;;;;;8.67;5.27;;;16.10;49.40;;;;;;12572168;23;20174;-83
2023/05/04 08:54:26;;;;;;;7.63;4.90;;;16.00;43.10;;;;;;12554168;23;20222;-83
2023/05/04 08:59:30;;;;;;;9.50;4.70;;;15.70;39.40;;;;;;12554485;23;20187;-83
2023/05/04 09:04:33;;;;;;;8.10;4.47;;;15.50;32.20;;;;;;12554629;23;20630;-83
2023/05/04 09:09:35;;;;;;;5.63;4.03;;;15.50;32.20;;;;;;12554205;23;20206;-83
2023/05/04 09:14:40;;;;;;;6.00;4.67;;;15.90;40.00;;;;;;12553587;23;20292;-83
2023/05/04 09:19:43;;;;;;;7.00;4.57;;;16.00;32.60;;;;;;12553818;23;20198;-83
2023/05/04 09:24:46;;;;;;;6.20;3.83;;;16.20;32.30;;;;;;12554115;23;20257;-83
2023/05/04 09:29:55;;;;;;;10.63;4.33;;;16.40;39.50;;;;;;12553864;23;20178;-83
2023/05/04 09:34:58;;;;;;;6.10;4.30;;;16.40;28.50;;;;;;12554562;23;20182;-83
2023/05/04 09:40:00;;;;;;;7.40;4.23;;;16.50;29.50;;;;;;12554003;23;20206;-83
2023/05/04 09:45:09;;;;;;;6.93;3.33;;;16.70;32.20;;;;;;12574850;23;20182;-83
2023/05/04 09:50:17;;;;;;;4.93;3.23;;;16.70;31.10;;;;;;12554228;23;20242;-83
2023/05/04 09:55:24;;;;;;;6.80;3.90;;;16.90;35.10;;;;;;12554170;23;20706;-83
2023/05/04 10:00:26;;;;;;;4.40;3.77;;;17.00;33.30;;;;;;12553465;23;20190;-83
2023/05/04 10:05:29;;;;;;;7.27;3.50;;;17.10;33.30;;;;;;12552850;23;20210;-83
2023/05/04 10:10:33;;;;;;;4.10;3.70;;;17.10;31.90;;;;;;12557316;23;20265;-83
2023/05/04 10:15:50;;;;;;;5.83;3.83;;;17.20;31.10;;;;;;12579294;23;20189;-83
2023/05/04 10:20:58;;;;;;;5.53;3.60;;;17.20;31.40;;;;;;12557274;23;20178;-83
2023/05/04 10:26:19;;;;;;;8.07;4.33;;;17.30;33.80;;;;;;12571904;23;20167;-83
2023/05/04 10:31:21;;;;;;;12.83;3.87;;;17.30;27.40;;;;;;12567723;23;20499;-83
2023/05/04 10:36:34;;;;;;;6.90;3.50;;;17.30;26.20;;;;;;12557765;23;20194;-83
2023/05/04 10:41:37;;;;;;;7.83;4.37;;;17.30;31.10;;;;;;12556313;23;20179;-83
2023/05/04 10:46:39;;;;;;;8.33;3.67;;;17.20;27.60;;;;;;12556337;23;20246;-83
2023/05/04 10:51:42;;;;;;;5.10;4.33;;;17.30;30.40;;;;;;12556857;23;20591;-83
2023/05/04 10:57:03;;;;;;;5.77;4.17;;;17.20;28.30;;;;;;12556505;23;20187;-83
2023/05/04 11:02:06;;;;;;;4.27;3.33;;;17.30;27.80;;;;;;12555663;23;20214;-83
2023/05/04 11:07:09;;;;;;;7.07;3.97;;;17.40;33.80;;;;;;12556472;23;20182;-83
2023/05/04 11:12:13;;;;;;;6.50;3.23;;;17.20;34.50;;;;;;12556207;23;20277;-83
2023/05/04 11:17:16;;;;;;;7.37;4.63;;;17.30;35.50;;;;;;12577547;23;20190;-83
2023/05/04 11:22:21;;;;;;;8.17;5.03;;;17.40;29.10;;;;;;12555868;23;20179;-83
2023/05/04 11:27:27;;;;;;;8.00;4.33;;;17.30;26.60;;;;;;12555694;23;20573;-83
2023/05/04 11:32:41;;;;;;;3.97;3.57;;;17.20;25.20;;;;;;12554731;23;20575;-83
2023/05/04 11:37:45;;;;;;;5.27;3.87;;;17.30;32.40;;;;;;12557113;23;20206;-83
2023/05/04 11:42:48;;;;;;;11.33;5.40;;;17.30;30.70;;;;;;12555605;23;20218;-83
2023/05/04 11:47:52;;;;;;;9.33;4.90;;;17.20;28.20;;;;;;12555824;23;20226;-83
2023/05/04 11:53:06;;;;;;;10.13;4.70;;;17.30;26.70;;;;;;12555217;23;20253;-83
2023/05/04 11:58:10;;;;;;;12.40;5.17;;;17.40;26.30;;;;;;12553204;23;20657;-83
2023/05/04 12:03:13;;;;;;;3.83;3.20;;;17.50;30.40;;;;;;12553102;23;20182;-83
2023/05/04 12:08:26;;;;;;;10.17;5.67;;;17.40;32.20;;;;;;12552240;23;20210;-83
2023/05/04 12:13:28;;;;;;;26.07;5.93;;;17.20;22.30;;;;;;12555209;23;20269;-83
2023/05/04 12:18:31;;;;;;;7.47;4.77;;;17.10;24.80;;;;;;12554996;23;20194;-83
2023/05/04 12:23:35;;;;;;;7.37;4.43;;;17.30;27.30;;;;;;12571159;23;20170;-83
2023/05/04 12:28:39;;;;;;;7.53;4.63;;;17.30;28.80;;;;;;12554700;23;20218;-83
2023/05/04 12:33:41;;;;;;;9.57;5.43;;;17.10;27.90;;;;;;12554435;23;20514;-83
2023/05/04 12:38:44;;;;;;;7.97;4.40;;;17.20;27.00;;;;;;12554440;23;20202;-83
2023/05/04 12:43:48;;;;;;;9.27;4.67;;;17.10;27.20;;;;;;12553524;23;20568;-83
2023/05/04 12:48:50;;;;;;;12.33;5.50;;;17.20;24.50;;;;;;12553067;23;20186;-83
2023/05/04 12:53:54;;;;;;;9.70;4.43;;;17.40;22.40;;;;;;12528361;23;20241;-83
2023/05/04 12:58:57;;;;;;;9.17;5.07;;;17.60;28.50;;;;;;12554046;23;20253;-83
2023/05/04 13:03:59;;;;;;;4.57;3.63;;;17.70;26.20;;;;;;12529267;23;20186;-83
2023/05/04 13:09:05;;;;;;;4.73;3.80;;;17.80;29.90;;;;;;12554543;23;20250;-83
2023/05/04 13:14:07;;;;;;;7.73;3.57;;;17.90;27.00;;;;;;12553830;23;20510;-83
2023/05/04 13:19:10;;;;;;;5.30;3.33;;;18.00;27.10;;;;;;12553613;23;20190;-83
2023/05/04 13:24:12;;;;;;;5.87;3.10;;;18.00;29.00;;;;;;12554447;23;20167;-83
2023/05/04 13:29:15;;;;;;;7.87;5.63;;;17.90;32.70;;;;;;12554106;23;20182;-83
2023/05/04 13:34:18;;;;;;;10.40;4.83;;;17.80;24.10;;;;;;12575387;23;20245;-83
2023/05/04 13:39:21;;;;;;;5.27;4.27;;;17.70;21.60;;;;;;12553562;23;20186;-83
2023/05/04 13:44:23;;;;;;;7.43;4.37;;;17.80;26.50;;;;;;12552553;23;20218;-83
2023/05/04 13:49:26;;;;;;;10.50;4.80;;;17.80;28.00;;;;;;12553664;23;20592;-83
2023/05/04 13:54:29;;;;;;;10.07;4.17;;;17.70;24.10;;;;;;12553690;23;20182;-83
2023/05/04 13:59:32;;;;;;;5.20;3.50;;;17.80;28.90;;;;;;12553231;23;20190;-83
2023/05/04 14:04:34;;;;;;;21.00;6.10;;;17.80;30.00;;;;;;12569910;23;20196;-83
2023/05/04 14:09:40;;;;;;;4.47;4.00;;;17.90;28.00;;;;;;12575847;23;20573;-83
2023/05/04 14:14:43;;;;;;;6.30;3.80;;;17.90;31.30;;;;;;12552800;23;20183;-83
2023/05/04 14:19:45;;;;;;;4.83;3.27;;;18.00;31.70;;;;;;12553281;23;20188;-84
2023/05/04 14:24:48;;;;;;;9.17;3.80;;;18.10;33.00;;;;;;12528196;23;20509;-83
2023/05/04 14:29:51;;;;;;;7.03;4.17;;;18.10;31.00;;;;;;12552288;23;20531;-83
2023/05/04 14:35:06;;;;;;;3.30;2.73;;;18.10;30.80;;;;;;12553303;23;20183;-83
2023/05/04 14:40:10;;;;;;;3.40;3.00;;;18.10;35.40;;;;;;12569666;23;20194;-83
2023/05/04 14:45:13;;;;;;;3.13;2.83;;;18.10;27.30;;;;;;12551385;23;20562;-84
2023/05/04 14:50:16;;;;;;;14.37;5.13;;;18.10;26.10;;;;;;12551317;23;20488;-83
2023/05/04 14:55:19;;;;;;;9.87;5.60;;;18.30;22.90;;;;;;12555339;23;20683;-83
2023/05/04 15:00:21;;;;;;;4.47;4.07;;;18.40;26.20;;;;;;12556409;23;20902;-83
2023/05/04 15:05:24;;;;;;;4.43;3.03;;;18.50;27.70;;;;;;12556902;23;20180;-83
2023/05/04 15:10:27;;;;;;;7.63;4.50;;;18.60;30.70;;;;;;12556063;23;20198;-83
2023/05/04 15:15:29;;;;;;;10.13;5.23;;;18.70;27.60;;;;;;12532059;23;20187;-83
2023/05/04 15:20:32;;;;;;;4.03;3.53;;;18.60;22.70;;;;;;12556199;23;20573;-83
2023/05/04 15:25:41;;;;;;;8.53;4.37;;;18.60;25.40;;;;;;12556392;23;20167;-83
2023/05/04 15:30:43;;;;;;;7.90;3.23;;;18.60;24.20;;;;;;12555631;23;20502;-83
2023/05/04 15:35:46;;;;;;;3.53;3.23;;;18.50;26.50;;;;;;12555906;23;20237;-83
2023/05/04 15:40:49;;;;;;;4.10;2.63;;;18.60;30.00;;;;;;12555738;23;20257;-83
2023/05/04 15:45:51;;;;;;;7.33;4.03;;;18.50;29.10;;;;;;12555507;23;20171;-83
2023/05/04 15:50:54;;;;;;;3.83;3.23;;;18.50;24.40;;;;;;12554964;23;20183;-83
2023/05/04 15:55:56;;;;;;;5.37;3.27;;;18.50;29.40;;;;;;12555495;23;20166;-83
2023/05/04 16:01:02;;;;;;;4.37;3.10;;;18.40;25.80;;;;;;12555161;23;20288;-83
2023/05/04 16:06:07;;;;;;;3.50;3.20;;;18.10;26.80;;;;;;12554211;23;20566;-83
2023/05/04 16:11:10;;;;;;;4.17;3.47;;;18.30;26.80;;;;;;12552714;23;20546;-83
2023/05/04 16:16:12;;;;;;;9.13;3.73;;;18.30;25.60;;;;;;12553498;23;20230;-83
2023/05/04 16:21:15;;;;;;;9.07;3.23;;;18.30;24.70;;;;;;12554996;23;20193;-83
2023/05/04 16:26:18;;;;;;;2.90;2.40;;;18.20;24.60;;;;;;12554571;23;20519;-83
2023/05/04 16:31:20;;;;;;;4.53;3.83;;;18.10;26.00;;;;;;12553874;23;20606;-83
2023/05/04 16:36:23;;;;;;;6.27;3.77;;;18.00;28.20;;;;;;12576065;23;20218;-83
2023/05/04 16:41:29;;;;;;;7.27;4.20;;;17.80;26.80;;;;;;12554689;23;20234;-83
2023/05/04 16:46:31;;;;;;;3.57;3.03;;;17.70;24.50;;;;;;12575774;23;20525;-83
2023/05/04 16:51:34;;;;;;;9.63;3.77;;;17.50;28.50;;;;;;12553801;23;20176;-83
2023/05/04 16:56:37;;;;;;;11.50;4.17;;;17.30;26.10;;;;;;12553683;23;20174;-83
2023/05/04 17:01:40;;;;;;;3.10;2.80;;;17.20;27.80;;;;;;12552651;23;20188;-83
2023/05/04 17:06:42;;;;;;;11.83;4.33;;;17.00;31.40;;;;;;12553814;23;20183;-83
2023/05/04 17:11:45;;;;;;;8.73;4.40;;;16.90;26.50;;;;;;12554098;23;20258;-83
2023/05/04 17:16:48;;;;;;;6.87;3.63;;;16.60;25.40;;;;;;12553746;23;20628;-83
2023/05/04 17:21:50;;;;;;;7.83;3.57;;;16.40;27.40;;;;;;12554272;23;20621;-83
2023/05/04 17:26:53;;;;;;;2.80;2.50;;;16.20;27.00;;;;;;12528031;23;20178;-83
2023/05/04 17:31:55;;;;;;;4.13;2.90;;;16.00;28.90;;;;;;12553850;23;20186;-83
2023/05/04 17:36:58;;;;;;;12.13;4.00;;;15.80;27.30;;;;;;12553787;23;20226;-83
2023/05/04 17:42:01;;;;;;;7.30;3.43;;;15.60;27.30;;;;;;12554494;23;20199;-83
2023/05/04 17:47:03;;;;;;;24.63;5.17;;;15.30;27.80;;;;;;12563855;23;20174;-83
2023/05/04 17:52:06;;;;;;;12.03;3.80;;;14.90;31.10;;;;;;12554080;23;20665;-83
2023/05/04 17:57:09;;;;;;;13.20;4.70;;;14.60;30.90;;;;;;12554393;23;20237;-83
2023/05/04 18:02:12;;;;;;;9.47;5.03;;;14.10;36.00;;;;;;12551340;23;20298;-83
2023/05/04 18:07:14;;;;;;;16.60;6.17;;;14.00;39.50;;;;;;12553421;23;21276;-83
2023/05/04 18:12:17;;;;;;;27.93;6.53;;;13.70;41.00;;;;;;12553117;23;20198;-83
2023/05/04 18:17:19;;;;;;;20.50;6.03;;;13.40;41.30;;;;;;12562731;23;20230;-83
2023/05/04 18:22:22;;;;;;;13.73;5.57;;;13.20;45.90;;;;;;12553745;23;20261;-83
2023/05/04 18:27:24;;;;;;;31.43;6.13;;;13.10;46.80;;;;;;12554359;23;20210;-83
2023/05/04 18:32:27;;;;;;;18.73;7.23;;;13.00;53.70;;;;;;12557107;23;20516;-83
2023/05/04 18:37:29;;;;;;;16.20;6.83;;;12.80;57.30;;;;;;12557085;23;20578;-83
2023/05/04 18:42:32;;;;;;;29.87;9.07;;;12.70;58.90;;;;;;12555692;23;20528;-83
2023/05/04 18:47:34;;;;;;;32.50;9.50;;;12.50;61.40;;;;;;12554613;23;20259;-84
2023/05/04 18:52:37;;;;;;;33.37;10.17;;;12.50;69.40;;;;;;12556713;23;20198;-83
2023/05/04 18:57:39;;;;;;;29.43;8.90;;;12.40;81.70;;;;;;12557478;23;20183;-83
2023/05/04 19:02:42;;;;;;;34.37;10.53;;;12.30;90.70;;;;;;12556473;23;20203;-83
2023/05/04 19:07:44;;;;;;;31.90;9.07;;;12.20;90.50;;;;;;12556561;23;20700;-83
2023/05/04 19:12:49;;;;;;;24.50;9.60;;;12.10;91.00;;;;;;12573804;23;20170;-83
2023/05/04 19:17:51;;;;;;;21.60;9.27;;;12.10;91.80;;;;;;12555682;23;20226;-83
2023/05/04 19:22:55;;;;;;;18.87;8.80;;;12.10;92.10;;;;;;12556490;23;20163;-83
2023/05/04 19:27:58;;;;;;;19.47;8.93;;;12.00;91.00;;;;;;12556554;23;20226;-83
2023/05/04 19:33:00;;;;;;;14.87;8.33;;;11.90;91.30;;;;;;12563123;23;20521;-83
2023/05/04 19:38:05;;;;;;;21.47;9.63;;;11.80;92.10;;;;;;12555631;23;20313;-83
2023/05/04 19:43:08;;;;;;;16.60;8.13;;;11.70;91.30;;;;;;12556642;23;20576;-83
2023/05/04 19:48:12;;;;;;;16.13;7.43;;;11.70;93.60;;;;;;12555505;23;20645;-83
2023/05/04 19:53:15;;;;;;;15.00;8.40;;;11.70;94.70;;;;;;12555115;23;20525;-83
2023/05/04 19:58:17;;;;;;;14.90;8.33;;;11.60;95.20;;;;;;12555918;23;20182;-83
2023/05/04 20:03:19;;;;;;;11.00;7.67;;;11.60;94.20;;;;;;12555929;23;20174;-83
2023/05/04 20:08:22;;;;;;;17.00;9.70;;;11.60;90.80;;;;;;12555598;23;20253;-83
2023/05/04 20:13:25;;;;;;;17.20;7.37;;;11.70;86.30;;;;;;12555664;23;20226;-83
2023/05/04 20:18:27;;;;;;;17.33;8.77;;;11.80;86.70;;;;;;12577047;23;20590;-83
2023/05/04 20:23:30;;;;;;;25.93;9.87;;;11.90;81.10;;;;;;12555083;23;20184;-83
2023/05/04 20:28:32;;;;;;;28.97;16.63;;;11.90;79.80;;;;;;12555862;23;20182;-83
2023/05/04 20:33:35;;;;;;;60.83;31.20;;;12.10;82.20;;;;;;12554598;23;20527;-83
2023/05/04 20:38:38;;;;;;;48.47;26.03;;;12.00;80.90;;;;;;12554785;23;20198;-83
2023/05/04 20:43:40;;;;;;;23.60;13.83;;;11.90;87.00;;;;;;12529794;23;20712;-83
2023/05/04 20:48:43;;;;;;;19.97;10.87;;;11.80;86.80;;;;;;12529136;23;20258;-83
2023/05/04 20:53:45;;;;;;;11.07;8.10;;;11.60;92.20;;;;;;12555121;23;20182;-83
2023/05/04 20:58:48;;;;;;;12.23;7.80;;;11.60;91.30;;;;;;12552979;23;20580;-84
2023/05/04 21:03:51;;;;;;;13.27;6.57;;;11.50;92.30;;;;;;12554050;23;20183;-83
2023/05/04 21:08:54;;;;;;;15.83;9.50;;;11.60;92.00;;;;;;12555038;23;20206;-83
2023/05/04 21:13:56;;;;;;;18.93;8.20;;;11.50;92.70;;;;;;12554773;23;20207;-83
2023/05/04 21:18:59;;;;;;;15.37;7.57;;;11.40;93.70;;;;;;12529216;23;20569;-83
2023/05/04 21:24:02;;;;;;;13.70;8.70;;;11.30;95.60;;;;;;12554374;23;20217;-83
2023/05/04 21:29:12;;;;;;;9.63;7.43;;;11.20;96.20;;;;;;12554005;23;20229;-83
2023/05/04 21:34:14;;;;;;;17.63;8.60;;;11.10;97.50;;;;;;12553930;23;20538;-83
2023/05/04 21:39:17;;;;;;;13.93;7.57;;;11.00;99.10;;;;;;12553176;23;20218;-83
2023/05/04 21:44:19;;;;;;;11.73;7.73;;;10.90;99.40;;;;;;12553249;23;20175;-83
2023/05/04 21:49:22;;;;;;;11.77;7.97;;;10.80;99.40;;;;;;12553006;23;20186;-83
2023/05/04 21:54:25;;;;;;;14.63;8.90;;;10.70;99.90;;;;;;12552520;23;20265;-83
2023/05/04 21:59:27;;;;;;;19.87;9.00;;;10.60;99.90;;;;;;12553737;23;20192;-83
2023/05/04 22:04:30;;;;;;;14.00;8.20;;;10.40;99.90;;;;;;12556068;23;20218;-83
2023/05/04 22:09:33;;;;;;;16.93;7.73;;;10.30;99.90;;;;;;12532971;23;20243;-83
2023/05/04 22:14:35;;;;;;;10.77;7.73;;;10.30;99.90;;;;;;12558078;23;20218;-83
2023/05/04 22:19:38;;;;;;;14.90;7.97;;;10.20;99.90;;;;;;12557562;23;20226;-83
2023/05/04 22:24:40;;;;;;;9.83;7.17;;;10.20;99.90;;;;;;12558650;23;20630;-83
2023/05/04 22:29:45;;;;;;;9.97;8.20;;;10.10;99.90;;;;;;12557561;23;20226;-83
2023/05/04 22:34:47;;;;;;;10.73;7.47;;;10.00;99.90;;;;;;12556978;23;20190;-83
2023/05/04 22:39:50;;;;;;;16.30;9.57;;;9.90;99.90;;;;;;12573095;23;20265;-83
2023/05/04 22:44:53;;;;;;;13.00;8.27;;;9.90;99.90;;;;;;12557218;23;20545;-83
2023/05/04 22:49:55;;;;;;;12.90;7.60;;;9.80;99.40;;;;;;12574433;23;20166;-83
2023/05/04 22:54:58;;;;;;;15.00;7.77;;;9.70;99.00;;;;;;12557124;23;20171;-83
2023/05/04 23:00:01;;;;;;;13.57;7.13;;;9.60;99.00;;;;;;12557133;23;20628;-83
2023/05/04 23:05:03;;;;;;;15.53;7.87;;;9.70;99.20;;;;;;12557786;23;20247;-83
2023/05/04 23:10:06;;;;;;;13.50;7.10;;;9.60;98.90;;;;;;12556489;23;20542;-83
2023/05/04 23:15:09;;;;;;;13.03;7.47;;;9.60;99.00;;;;;;12556107;23;20174;-83
2023/05/04 23:20:12;;;;;;;13.13;7.57;;;9.50;99.90;;;;;;12557015;23;20582;-83
2023/05/04 23:25:15;;;;;;;11.10;6.87;;;9.50;99.80;;;;;;12556466;23;20170;-83
2023/05/04 23:30:17;;;;;;;21.40;7.43;;;9.50;99.90;;;;;;12554585;23;20182;-83
2023/05/04 23:35:20;;;;;;;14.23;7.80;;;9.40;99.90;;;;;;12572778;23;20206;-83
2023/05/04 23:40:22;;;;;;;17.20;8.77;;;9.40;99.90;;;;;;12556110;23;20194;-83
2023/05/04 23:45:24;;;;;;;18.37;11.20;;;9.30;99.90;;;;;;12556182;23;20183;-83
2023/05/04 23:50:27;;;;;;;22.53;13.97;;;9.40;99.90;;;;;;12556109;23;20249;-83
2023/05/04 23:55:29;;;;;;;18.33;12.17;;;9.60;99.90;;;;;;12556006;23;20206;-83
